createdAt,value
2022-08-03T00:01:24.834Z,2.80
2022-08-03T00:03:26.561Z,3.55
2022-08-03T00:05:28.480Z,4.22
2022-08-03T00:07:30.026Z,2.15
2022-08-03T00:09:35.467Z,2.38
2022-08-03T00:11:37.762Z,2.67
2022-08-03T00:13:39.346Z,2.63
2022-08-03T00:15:41.751Z,3.17
2022-08-03T00:17:52.641Z,2.13
2022-08-03T00:19:55.269Z,2.83
2022-08-03T00:21:57.173Z,2.05
2022-08-03T00:23:58.724Z,2.42
2022-08-03T00:26:00.196Z,2.80
2022-08-03T00:28:02.286Z,1.98
2022-08-03T00:30:04.069Z,3.65
2022-08-03T00:32:05.704Z,3.20
2022-08-03T00:34:07.253Z,1.77
2022-08-03T00:36:08.769Z,2.25
2022-08-03T00:38:10.227Z,2.08
2022-08-03T00:40:12.695Z,3.33
2022-08-03T00:42:14.868Z,2.53
2022-08-03T00:44:16.555Z,2.22
2022-08-03T00:46:21.817Z,1.83
2022-08-03T00:48:33.541Z,2.35
2022-08-03T00:50:36.484Z,2.35
2022-08-03T00:52:37.953Z,2.53
2022-08-03T00:54:39.825Z,2.22
2022-08-03T00:56:41.594Z,3.08
2022-08-03T00:59:01.897Z,2.17
2022-08-03T01:01:07.325Z,2.10
2022-08-03T01:03:10.321Z,2.22
2022-08-03T01:05:12.095Z,2.55
2022-08-03T01:07:46.330Z,2.05
2022-08-03T01:09:56.208Z,2.20
2022-08-03T01:12:04.009Z,1.83
2022-08-03T01:14:18.201Z,2.72
2022-08-03T01:16:35.764Z,3.08
2022-08-03T01:18:38.646Z,1.70
2022-08-03T01:20:43.303Z,2.05
2022-08-03T01:23:03.736Z,3.00
2022-08-03T01:25:25.483Z,2.35
2022-08-03T01:27:45.702Z,3.20
2022-08-03T01:29:56.720Z,2.33
2022-08-03T01:32:53.269Z,2.20
2022-08-03T01:34:23.536Z,2.75
2022-08-03T01:36:27.612Z,2.15
2022-08-03T01:38:34.239Z,2.97
2022-08-03T01:40:36.724Z,1.60
2022-08-03T01:42:39.894Z,2.03
2022-08-03T01:44:42.562Z,2.00
2022-08-03T01:46:47.606Z,2.17
2022-08-03T01:48:50.755Z,2.65
2022-08-03T01:50:54.721Z,1.50
2022-08-03T01:54:58.422Z,2.80
2022-08-03T01:56:59.911Z,2.85
2022-08-03T01:59:02.379Z,2.42
2022-08-03T02:01:05.091Z,1.58
2022-08-03T02:03:07.163Z,1.25
2022-08-03T02:05:14.111Z,1.15
2022-08-03T02:07:22.526Z,2.03
2022-08-03T02:09:31.294Z,1.48
2022-08-03T02:11:36.843Z,1.50
2022-08-03T02:13:44.612Z,1.35
2022-08-03T02:15:53.193Z,1.35
2022-08-03T02:17:59.345Z,1.33
2022-08-03T02:20:05.316Z,1.42
2022-08-03T02:22:13.738Z,1.70
2022-08-03T02:24:21.813Z,1.40
2022-08-03T02:26:34.670Z,1.40
2022-08-03T02:28:40.160Z,1.25
2022-08-03T02:30:43.098Z,1.80
2022-08-03T02:32:48.801Z,1.23
2022-08-03T02:34:51.657Z,1.70
2022-08-03T02:36:53.807Z,1.52
2022-08-03T02:38:57.079Z,1.45
2022-08-03T02:41:02.810Z,1.33
2022-08-03T02:43:07.552Z,1.90
2022-08-03T02:45:13.865Z,1.38
2022-08-03T02:47:16.304Z,1.48
2022-08-03T02:49:41.061Z,1.17
2022-08-03T02:51:43.803Z,1.85
2022-08-03T02:53:45.983Z,1.20
2022-08-03T02:55:48.223Z,1.58
2022-08-03T02:57:50.291Z,1.75
2022-08-03T02:59:52.035Z,1.60
2022-08-03T03:01:55.021Z,1.58
2022-08-03T03:03:57.622Z,1.23
2022-08-03T03:05:59.954Z,1.95
2022-08-03T03:08:01.950Z,1.48
2022-08-03T03:10:04.729Z,1.30
2022-08-03T03:12:08.061Z,1.33
2022-08-03T03:14:11.593Z,0.95
2022-08-03T03:16:13.715Z,1.20
2022-08-03T03:18:20.205Z,2.25
2022-08-03T03:20:29.471Z,1.10
2022-08-03T03:22:33.566Z,1.42
2022-08-03T03:24:35.896Z,1.17
2022-08-03T03:26:42.291Z,1.20
2022-08-03T03:28:44.331Z,1.83
2022-08-03T03:30:53.141Z,1.27
2022-08-03T03:32:55.443Z,1.38
2022-08-03T03:34:59.173Z,1.20
2022-08-03T03:37:01.502Z,1.48
2022-08-03T03:39:15.459Z,1.52
2022-08-03T03:41:17.671Z,1.40
2022-08-03T03:43:19.310Z,1.42
2022-08-03T03:45:21.748Z,0.95
2022-08-03T03:47:32.373Z,1.98
2022-08-03T03:49:34.772Z,0.82
2022-08-03T03:51:36.323Z,1.38
2022-08-03T03:53:37.771Z,1.55
2022-08-03T03:55:58.937Z,1.35
2022-08-03T03:58:01.784Z,1.45
2022-08-03T04:00:04.338Z,1.23
2022-08-03T04:02:06.493Z,1.45
2022-08-03T04:04:26.537Z,1.10
2022-08-03T04:06:46.343Z,1.20
2022-08-03T04:09:06.583Z,1.33
2022-08-03T04:11:30.122Z,1.50
2022-08-03T04:13:35.326Z,1.77
2022-08-03T04:15:38.118Z,1.60
2022-08-03T04:17:40.387Z,1.27
2022-08-03T04:19:53.180Z,1.10
2022-08-03T04:21:57.295Z,1.35
2022-08-03T04:24:00.377Z,0.95
2022-08-03T04:26:03.337Z,1.50
2022-08-03T04:28:07.797Z,1.10
2022-08-03T04:30:27.647Z,0.65
2022-08-03T04:32:29.738Z,1.02
2022-08-03T04:34:31.335Z,1.35
2022-08-03T04:36:35.157Z,1.70
2022-08-03T04:38:42.892Z,0.90
2022-08-03T04:40:45.690Z,0.90
2022-08-03T04:42:48.132Z,0.77
2022-08-03T04:44:50.243Z,1.75
2022-08-03T04:46:52.742Z,1.20
2022-08-03T04:48:54.914Z,0.98
2022-08-03T04:50:56.801Z,0.70
2022-08-03T04:52:59.203Z,1.50
2022-08-03T04:55:01.260Z,1.10
2022-08-03T04:57:02.768Z,1.00
2022-08-03T04:59:04.351Z,2.05
2022-08-03T05:01:06.103Z,0.70
2022-08-03T05:03:20.317Z,0.85
2022-08-03T05:05:26.586Z,0.80
2022-08-03T05:07:49.721Z,1.38
2022-08-03T05:10:01.775Z,1.08
2022-08-03T05:12:13.807Z,0.50
2022-08-03T05:14:28.158Z,0.50
2022-08-03T05:16:37.248Z,0.50
2022-08-03T05:18:46.232Z,0.60
2022-08-03T05:20:57.527Z,0.47
2022-08-03T05:23:07.891Z,0.60
2022-08-03T05:25:20.608Z,0.77
2022-08-03T05:27:29.738Z,0.60
2022-08-03T05:29:40.873Z,0.75
2022-08-03T05:31:49.816Z,0.80
2022-08-03T05:33:59.491Z,0.98
2022-08-03T05:36:04.183Z,0.90
2022-08-03T05:38:06.737Z,0.55
2022-08-03T05:40:11.137Z,0.82
2022-08-03T05:42:15.127Z,0.65
2022-08-03T05:44:17.216Z,0.75
2022-08-03T05:46:18.706Z,0.60
2022-08-03T05:48:20.547Z,1.10
2022-08-03T05:50:22.193Z,1.05
2022-08-03T05:52:24.140Z,1.17
2022-08-03T05:54:26.030Z,1.25
2022-08-03T05:56:47.518Z,1.05
2022-08-03T05:58:49.197Z,1.25
2022-08-03T06:00:50.765Z,1.00
2022-08-03T06:02:52.230Z,0.82
2022-08-03T06:04:53.730Z,1.20
2022-08-03T06:06:55.259Z,1.85
2022-08-03T06:08:56.726Z,1.02
2022-08-03T06:10:58.301Z,1.17
2022-08-03T06:12:59.949Z,1.17
2022-08-03T06:15:01.964Z,1.40
2022-08-03T06:17:03.470Z,1.00
2022-08-03T06:19:04.981Z,1.75
2022-08-03T06:21:12.854Z,2.08
2022-08-03T06:23:18.043Z,1.15
2022-08-03T06:25:21.371Z,1.05
2022-08-03T06:27:36.689Z,0.90
2022-08-03T06:29:38.975Z,2.20
2022-08-03T06:31:40.483Z,1.02
2022-08-03T06:34:30.489Z,1.20
2022-08-03T06:36:03.899Z,1.75
2022-08-03T06:38:05.336Z,1.08
2022-08-03T06:40:07.042Z,1.27
2022-08-03T06:42:09.855Z,1.35
2022-08-03T06:44:11.567Z,1.17
2022-08-03T06:46:13.059Z,0.95
2022-08-03T06:48:14.556Z,0.80
2022-08-03T06:50:20.655Z,1.10
2022-08-03T06:52:38.096Z,0.77
2022-08-03T06:54:40.138Z,1.10
2022-08-03T06:56:41.636Z,1.05
2022-08-03T06:58:43.363Z,0.75
2022-08-03T07:00:45.051Z,0.60
2022-08-03T07:02:46.554Z,0.73
2022-08-03T07:04:49.076Z,0.68
2022-08-03T07:06:50.556Z,0.80
2022-08-03T07:08:55.417Z,1.50
2022-08-03T07:10:59.267Z,0.80
2022-08-03T07:13:00.848Z,1.13
2022-08-03T07:15:03.549Z,1.00
2022-08-03T07:17:11.501Z,1.90
2022-08-03T07:19:13.528Z,0.90
2022-08-03T07:21:16.710Z,1.33
2022-08-03T07:23:19.295Z,1.38
2022-08-03T07:25:21.146Z,3.20
2022-08-03T07:27:22.867Z,2.08
2022-08-03T07:29:24.375Z,3.13
2022-08-03T07:31:25.983Z,1.73
2022-08-03T07:33:27.580Z,1.67
2022-08-03T07:35:29.189Z,2.42
2022-08-03T07:37:30.859Z,2.20
2022-08-03T07:39:32.456Z,1.95
2022-08-03T07:41:33.951Z,2.45
2022-08-03T07:43:35.485Z,2.13
2022-08-03T07:45:36.941Z,2.38
2022-08-03T07:47:38.567Z,2.63
2022-08-03T07:49:41.459Z,2.08
2022-08-03T07:51:43.260Z,1.83
2022-08-03T07:53:47.145Z,2.42
2022-08-03T07:55:49.610Z,2.75
2022-08-03T07:58:12.610Z,2.92
2022-08-03T08:00:16.427Z,2.15
2022-08-03T08:02:18.198Z,3.45
2022-08-03T08:04:19.878Z,2.03
2022-08-03T08:06:21.668Z,2.15
2022-08-03T08:08:23.216Z,1.98
2022-08-03T08:10:24.793Z,2.13
2022-08-03T08:12:26.282Z,2.08
2022-08-03T08:14:28.007Z,1.50
2022-08-03T08:16:31.239Z,2.40
2022-08-03T08:18:35.397Z,1.58
2022-08-03T08:20:40.057Z,4.05
2022-08-03T08:22:46.324Z,2.08
2022-08-03T08:24:50.086Z,2.45
2022-08-03T08:26:55.396Z,1.70
2022-08-03T08:28:59.386Z,2.40
2022-08-03T08:31:03.616Z,2.08
2022-08-03T08:33:06.378Z,2.45
2022-08-03T08:35:10.516Z,2.10
2022-08-03T08:37:14.180Z,2.88
2022-08-03T08:39:17.538Z,2.20
2022-08-03T08:41:20.881Z,3.17
2022-08-03T08:43:22.451Z,2.08
2022-08-03T08:45:24.290Z,1.98
2022-08-03T08:47:29.595Z,2.35
2022-08-03T08:50:09.390Z,2.63
2022-08-03T08:52:13.116Z,2.63
2022-08-03T08:54:27.412Z,1.80
2022-08-03T08:56:29.115Z,2.28
2022-08-03T08:58:34.683Z,2.15
2022-08-03T09:00:36.221Z,1.90
2022-08-03T09:02:37.799Z,2.10
2022-08-03T09:04:40.126Z,1.83
2022-08-03T09:06:50.208Z,2.15
2022-08-03T09:09:00.537Z,1.88
2022-08-03T09:11:02.024Z,1.50
2022-08-03T09:13:04.008Z,2.25
2022-08-03T09:15:35.628Z,1.83
2022-08-03T09:17:40.661Z,2.22
2022-08-03T09:19:42.826Z,2.03
2022-08-03T09:22:12.580Z,2.38
2022-08-03T09:24:31.192Z,2.50
2022-08-03T09:26:36.535Z,1.75
2022-08-03T09:29:01.492Z,2.30
2022-08-03T09:30:59.981Z,1.60
2022-08-03T09:33:06.585Z,1.50
2022-08-03T09:35:09.466Z,1.70
2022-08-03T09:37:17.327Z,1.70
2022-08-03T09:39:40.237Z,1.70
2022-08-03T09:41:42.686Z,1.92
2022-08-03T09:43:47.474Z,1.40
2022-08-03T09:45:49.163Z,1.52
2022-08-03T09:47:50.840Z,1.40
2022-08-03T09:50:06.018Z,2.20
2022-08-03T09:52:32.009Z,1.52
2022-08-03T09:54:36.604Z,2.78
2022-08-03T09:56:42.658Z,2.50
2022-08-03T09:58:47.570Z,2.00
2022-08-03T10:00:52.228Z,1.77
2022-08-03T10:03:03.515Z,2.85
2022-08-03T10:05:05.889Z,2.40
2022-08-03T10:07:09.290Z,2.90
2022-08-03T10:09:10.760Z,2.05
2022-08-03T10:11:12.527Z,2.08
2022-08-03T10:13:15.124Z,3.72
2022-08-03T10:16:22.285Z,1.63
2022-08-03T10:17:40.382Z,2.50
2022-08-03T10:19:42.008Z,2.22
2022-08-03T10:22:09.567Z,2.10
2022-08-03T10:24:11.408Z,2.22
2022-08-03T10:26:13.452Z,1.98
2022-08-03T10:28:16.735Z,2.20
2022-08-03T10:30:18.467Z,2.83
2022-08-03T10:32:29.144Z,2.13
2022-08-03T10:34:34.467Z,1.92
2022-08-03T10:36:38.541Z,2.00
2022-08-03T10:38:53.178Z,2.30
2022-08-03T10:40:59.047Z,1.42
2022-08-03T10:43:07.860Z,1.90
2022-08-03T10:45:12.711Z,2.03
2022-08-03T10:47:14.675Z,1.58
2022-08-03T10:49:34.812Z,1.33
2022-08-03T10:51:36.921Z,1.65
2022-08-03T10:53:54.639Z,1.75
2022-08-03T10:56:17.003Z,1.48
2022-08-03T10:58:53.350Z,2.35
2022-08-03T11:00:59.354Z,1.63
2022-08-03T11:03:04.309Z,1.73
2022-08-03T11:05:28.340Z,2.58
2022-08-03T11:07:30.047Z,1.70
2022-08-03T11:09:41.091Z,1.67
2022-08-03T11:11:43.703Z,1.75
2022-08-03T11:14:11.333Z,1.38
2022-08-03T11:16:21.991Z,1.95
2022-08-03T11:18:26.858Z,1.95
2022-08-03T11:20:48.220Z,1.70
2022-08-03T11:22:55.380Z,2.17
2022-08-03T11:24:58.360Z,1.90
2022-08-03T11:27:21.919Z,2.05
2022-08-03T11:29:31.502Z,2.33
2022-08-03T11:31:51.932Z,1.73
2022-08-03T11:34:08.905Z,2.17
2022-08-03T11:36:14.928Z,2.25
2022-08-03T11:38:38.223Z,1.58
2022-08-03T11:40:44.742Z,1.92
2022-08-03T11:42:48.476Z,2.15
2022-08-03T11:44:54.232Z,1.77
2022-08-03T11:46:57.385Z,2.60
2022-08-03T11:49:07.811Z,2.80
2022-08-03T11:51:22.126Z,2.17
2022-08-03T11:53:23.716Z,2.10
2022-08-03T11:55:30.502Z,1.70
2022-08-03T11:59:03.415Z,2.00
2022-08-03T11:59:54.675Z,2.58
2022-08-03T12:02:06.104Z,2.10
2022-08-03T12:04:07.579Z,2.00
2022-08-03T12:06:10.267Z,2.83
2022-08-03T12:08:12.529Z,2.03
2022-08-03T12:10:15.677Z,2.00
2022-08-03T12:12:17.236Z,2.05
2022-08-03T12:14:48.492Z,1.73
2022-08-03T12:16:46.809Z,2.17
2022-08-03T12:18:57.462Z,2.17
2022-08-03T12:21:09.238Z,1.80
2022-08-03T12:23:11.909Z,1.60
2022-08-03T12:25:20.598Z,2.40
2022-08-03T12:27:41.233Z,2.92
2022-08-03T12:29:42.731Z,2.53
2022-08-03T12:31:58.942Z,2.20
2022-08-03T12:34:03.163Z,1.70
2022-08-03T12:36:05.043Z,2.45
2022-08-03T12:38:06.987Z,1.70
2022-08-03T12:40:13.294Z,1.67
2022-08-03T12:42:16.982Z,2.10
2022-08-03T12:44:28.815Z,1.83
2022-08-03T12:46:53.797Z,1.27
2022-08-03T12:49:00.095Z,1.00
2022-08-03T12:51:08.338Z,1.33
2022-08-03T12:53:10.361Z,1.80
2022-08-03T12:55:19.223Z,1.58
2022-08-03T12:57:20.937Z,2.45
2022-08-03T12:59:35.051Z,2.30
2022-08-03T13:01:54.856Z,1.98
2022-08-03T13:03:56.506Z,1.63
2022-08-03T13:05:58.908Z,3.97
2022-08-03T13:08:00.783Z,1.48
2022-08-03T13:10:07.636Z,2.38
2022-08-03T13:12:10.917Z,1.85
2022-08-03T13:14:15.320Z,2.20
2022-08-03T13:16:24.859Z,1.40
2022-08-03T13:18:26.723Z,1.90
2022-08-03T13:20:28.392Z,1.90
2022-08-03T13:22:30.242Z,1.90
2022-08-03T13:24:32.461Z,2.17
2022-08-03T13:26:34.016Z,2.38
2022-08-03T13:28:35.910Z,2.40
2022-08-03T13:30:37.677Z,1.98
2022-08-03T13:32:39.422Z,1.70
2022-08-03T13:34:41.034Z,2.10
2022-08-03T13:37:06.696Z,1.70
2022-08-03T13:39:04.239Z,1.90
2022-08-03T13:41:10.760Z,1.95
2022-08-03T13:43:12.619Z,1.90
2022-08-03T13:45:14.152Z,1.77
2022-08-03T13:47:15.612Z,1.52
2022-08-03T13:49:17.141Z,2.13
2022-08-03T13:51:22.432Z,1.50
2022-08-03T13:53:24.731Z,1.10
2022-08-03T13:55:26.341Z,1.65
2022-08-03T13:58:02.299Z,1.40
2022-08-03T13:59:50.942Z,1.27
2022-08-03T14:01:55.612Z,2.58
2022-08-03T14:03:58.311Z,1.00
2022-08-03T14:05:59.801Z,0.90
2022-08-03T14:08:04.957Z,1.20
2022-08-03T14:10:06.861Z,1.42
2022-08-03T14:12:08.984Z,1.20
2022-08-03T14:14:10.724Z,1.75
2022-08-03T14:16:12.246Z,1.00
2022-08-03T14:18:29.208Z,1.50
2022-08-03T14:20:38.783Z,1.23
2022-08-03T14:22:50.516Z,0.80
2022-08-03T14:24:52.032Z,1.17
2022-08-03T14:27:08.655Z,0.80
2022-08-03T14:29:14.717Z,0.93
2022-08-03T14:32:11.601Z,1.27
2022-08-03T14:34:05.542Z,1.02
2022-08-03T14:36:10.540Z,1.10
2022-08-03T14:38:14.217Z,1.38
2022-08-03T14:40:19.935Z,1.60
2022-08-03T14:42:22.906Z,1.42
2022-08-03T14:44:26.828Z,1.17
2022-08-03T14:46:32.289Z,1.92
2022-08-03T14:50:31.700Z,0.90
2022-08-03T14:51:00.461Z,1.30
2022-08-03T14:53:06.124Z,1.33
2022-08-03T14:55:08.849Z,0.90
2022-08-03T14:57:10.347Z,1.25
2022-08-03T14:59:11.791Z,0.82
2022-08-03T15:02:04.972Z,1.00
2022-08-03T15:03:35.147Z,1.13
2022-08-03T15:05:36.770Z,1.25
2022-08-03T15:07:38.491Z,1.40
2022-08-03T15:09:40.034Z,1.35
2022-08-03T15:11:41.670Z,2.00
2022-08-03T15:13:43.207Z,1.45
2022-08-03T15:15:44.771Z,1.60
2022-08-03T15:18:00.147Z,1.67
2022-08-03T15:20:28.773Z,1.50
2022-08-03T15:22:25.326Z,1.85
2022-08-03T15:24:35.915Z,1.80
2022-08-03T15:26:41.430Z,1.70
2022-08-03T15:28:43.329Z,1.90
2022-08-03T15:30:44.865Z,1.15
2022-08-03T15:32:46.645Z,1.10
2022-08-03T15:34:52.146Z,1.85
2022-08-03T15:36:53.603Z,1.30
2022-08-03T15:39:04.679Z,1.50
2022-08-03T15:41:13.668Z,1.50
2022-08-03T15:43:15.327Z,1.80
2022-08-03T15:45:17.865Z,1.40
2022-08-03T15:47:22.359Z,2.15
2022-08-03T15:49:24.020Z,1.77
2022-08-03T15:51:25.665Z,1.73
2022-08-03T15:53:27.456Z,2.58
2022-08-03T15:55:29.307Z,2.50
2022-08-03T15:57:30.985Z,2.03
2022-08-03T15:59:32.586Z,1.98
2022-08-03T16:01:34.139Z,2.47
2022-08-03T16:03:35.940Z,2.42
2022-08-03T16:05:37.493Z,2.05
2022-08-03T16:08:03.682Z,2.03
2022-08-03T16:10:06.299Z,2.30
2022-08-03T16:12:15.463Z,2.33
2022-08-03T16:14:34.291Z,2.30
2022-08-03T16:16:40.991Z,2.22
2022-08-03T16:18:42.718Z,2.22
2022-08-03T16:20:45.184Z,3.42
2022-08-03T16:22:47.619Z,2.27
2022-08-03T16:24:49.144Z,2.58
2022-08-03T16:26:52.244Z,2.42
2022-08-03T16:28:53.898Z,3.25
2022-08-03T16:30:55.442Z,2.83
2022-08-03T16:32:57.066Z,3.90
2022-08-03T16:34:58.675Z,2.42
2022-08-03T16:37:11.781Z,2.40
2022-08-03T16:39:21.850Z,2.80
2022-08-03T16:41:23.360Z,3.20
2022-08-03T16:43:25.266Z,2.72
2022-08-03T16:45:27.094Z,2.53
2022-08-03T16:47:28.546Z,2.53
2022-08-03T16:49:54.467Z,4.47
2022-08-03T16:51:51.498Z,3.45
2022-08-03T16:54:07.282Z,2.53
2022-08-03T16:58:12.684Z,2.38
2022-08-03T17:00:33.971Z,3.30
2022-08-03T17:02:37.894Z,2.65
2022-08-03T17:04:40.040Z,3.05
2022-08-03T17:06:45.117Z,2.90
2022-08-03T17:08:55.272Z,2.20
2022-08-03T17:10:57.011Z,2.80
2022-08-03T17:12:58.770Z,4.03
2022-08-03T17:15:01.317Z,2.38
2022-08-03T17:17:04.662Z,2.78
2022-08-03T17:19:08.521Z,2.67
2022-08-03T17:21:12.608Z,2.80
2022-08-03T17:25:51.296Z,4.05
2022-08-03T17:28:48.358Z,2.35
2022-08-03T17:30:20.674Z,2.17
2022-08-03T17:32:23.437Z,2.70
2022-08-03T17:34:28.057Z,2.83
2022-08-03T17:37:03.203Z,2.22
2022-08-03T17:39:07.298Z,2.70
2022-08-03T17:41:18.627Z,3.20
2022-08-03T17:44:08.161Z,2.35
2022-08-03T17:45:57.518Z,2.50
2022-08-03T17:48:02.177Z,2.80
2022-08-03T17:50:24.701Z,3.50
2022-08-03T17:52:34.873Z,2.75
2022-08-03T17:55:56.821Z,2.95
2022-08-03T17:58:02.559Z,2.55
2022-08-03T18:00:25.093Z,1.73
2022-08-03T18:03:05.733Z,2.78
2022-08-03T18:05:16.463Z,2.15
2022-08-03T18:07:20.894Z,1.77
2022-08-03T18:11:50.646Z,1.55
2022-08-03T18:13:59.178Z,2.45
2022-08-03T18:16:04.810Z,3.30
2022-08-03T18:18:10.981Z,2.47
2022-08-03T18:20:31.171Z,2.00
2022-08-03T18:22:35.353Z,2.40
2022-08-03T18:24:37.671Z,2.53
2022-08-03T18:26:40.004Z,1.75
2022-08-03T18:28:42.035Z,2.17
2022-08-03T18:30:53.687Z,2.78
2022-08-03T18:33:01.013Z,2.10
2022-08-03T18:35:19.736Z,1.75
2022-08-03T18:37:26.361Z,2.50
2022-08-03T18:39:28.473Z,3.05
2022-08-03T18:41:35.417Z,2.10
2022-08-03T18:43:47.217Z,2.72
2022-08-03T18:46:03.357Z,1.98
2022-08-03T18:48:06.936Z,3.60
2022-08-03T18:50:30.606Z,2.65
2022-08-03T18:52:53.145Z,3.15
2022-08-03T18:55:19.628Z,3.13
2022-08-03T18:57:30.391Z,2.88
2022-08-03T18:59:41.547Z,3.35
2022-08-03T19:02:00.744Z,3.53
2022-08-03T19:04:09.943Z,3.03
2022-08-03T19:06:19.694Z,2.75
2022-08-03T19:08:45.311Z,3.03
2022-08-03T19:10:57.630Z,2.83
2022-08-03T19:13:19.889Z,2.95
2022-08-03T19:15:36.485Z,3.20
2022-08-03T19:17:50.265Z,4.05
2022-08-03T19:19:54.255Z,3.38
2022-08-03T19:21:56.874Z,2.78
2022-08-03T19:24:00.253Z,4.22
2022-08-03T19:26:02.530Z,2.95
2022-08-03T19:28:06.235Z,3.63
2022-08-03T19:30:21.822Z,3.97
2022-08-03T19:32:28.942Z,3.63
2022-08-03T19:34:32.778Z,3.80
2022-08-03T19:36:40.506Z,4.05
2022-08-03T19:38:45.509Z,3.42
2022-08-03T19:40:50.972Z,3.90
2022-08-03T19:42:54.719Z,3.08
2022-08-03T19:45:02.526Z,4.07
2022-08-03T19:47:17.128Z,3.35
2022-08-03T19:49:19.938Z,3.85
2022-08-03T19:51:58.527Z,3.55
2022-08-03T19:53:46.983Z,3.75
2022-08-03T19:55:49.029Z,3.75
2022-08-03T19:57:53.874Z,4.00
2022-08-03T20:00:03.354Z,3.47
2022-08-03T20:02:07.180Z,3.63
2022-08-03T20:04:08.843Z,3.25
2022-08-03T20:06:12.492Z,3.88
2022-08-03T20:08:19.591Z,4.28
2022-08-03T20:10:22.289Z,3.53
2022-08-03T20:12:27.461Z,3.88
2022-08-03T20:14:30.809Z,4.18
2022-08-03T20:16:33.355Z,3.63
2022-08-03T20:18:39.297Z,4.70
2022-08-03T20:20:41.505Z,4.10
2022-08-03T20:22:48.019Z,3.42
2022-08-03T20:24:53.090Z,4.32
2022-08-03T20:26:56.635Z,4.45
2022-08-03T20:31:32.216Z,4.43
2022-08-03T20:33:46.762Z,3.00
2022-08-03T20:35:50.838Z,4.60
2022-08-03T20:37:52.785Z,3.70
2022-08-03T20:39:54.413Z,3.55
2022-08-03T20:42:00.955Z,4.68
2022-08-03T20:44:08.075Z,4.57
2022-08-03T20:46:31.867Z,3.70
2022-08-03T20:48:38.409Z,3.65
2022-08-03T20:50:44.699Z,4.00
2022-08-03T20:52:51.236Z,3.95
2022-08-03T20:54:58.205Z,3.92
2022-08-03T20:57:07.143Z,5.65
2022-08-03T20:59:14.926Z,3.78
2022-08-03T21:01:27.944Z,3.88
2022-08-03T21:03:52.496Z,3.85
2022-08-03T21:06:00.837Z,4.45
2022-08-03T21:08:07.132Z,3.72
2022-08-03T21:10:10.050Z,4.40
2022-08-03T21:12:15.474Z,3.78
2022-08-03T21:13:13.491Z,3.63
2022-08-03T21:14:25.499Z,4.13
2022-08-03T21:16:28.495Z,3.67
2022-08-03T21:18:31.149Z,4.00
2022-08-03T21:20:34.440Z,3.78
2022-08-03T21:22:42.832Z,3.58
2022-08-03T21:24:45.202Z,3.35
2022-08-03T21:26:47.897Z,3.05
2022-08-03T21:28:50.270Z,4.50
2022-08-03T21:30:54.219Z,3.88
2022-08-03T21:34:57.841Z,3.28
2022-08-03T21:36:59.693Z,3.45
2022-08-03T21:39:04.558Z,4.38
2022-08-03T21:41:07.844Z,3.67
2022-08-03T21:43:09.565Z,3.00
2022-08-03T21:45:16.868Z,3.50
2022-08-03T21:47:23.098Z,3.72
2022-08-03T21:50:05.892Z,3.20
2022-08-03T21:51:49.386Z,2.40
2022-08-03T21:54:02.943Z,2.63
2022-08-03T21:56:12.561Z,2.60
2022-08-03T21:58:16.125Z,1.95
2022-08-03T22:00:19.000Z,2.20
2022-08-03T22:02:24.271Z,1.83
2022-08-03T22:04:42.651Z,2.25
2022-08-03T22:06:48.290Z,2.20
2022-08-03T22:08:50.355Z,2.22
2022-08-03T22:10:51.890Z,3.00
2022-08-03T22:12:53.398Z,2.42
2022-08-03T22:15:00.526Z,2.92
2022-08-03T22:17:06.276Z,3.13
2022-08-03T22:19:08.978Z,3.22
2022-08-03T22:21:12.130Z,2.67
2022-08-03T22:23:14.437Z,2.80
2022-08-03T22:25:18.174Z,2.03
2022-08-03T22:27:31.503Z,2.30
2022-08-03T22:29:34.973Z,2.93
2022-08-03T22:31:57.996Z,1.70
2022-08-03T22:33:58.593Z,2.10
2022-08-03T22:36:00.583Z,2.03
2022-08-03T22:38:05.457Z,2.05
2022-08-03T22:40:08.830Z,2.03
2022-08-03T22:42:10.519Z,2.08
2022-08-03T22:44:12.034Z,1.73
2022-08-03T22:46:18.574Z,2.42
2022-08-03T22:48:21.148Z,2.40
2022-08-03T22:50:32.689Z,2.20
2022-08-03T22:52:36.562Z,1.85
2022-08-03T22:54:38.389Z,1.40
2022-08-03T22:56:40.384Z,1.65
2022-08-03T22:58:41.968Z,1.85
2022-08-03T23:00:56.495Z,2.47
2022-08-03T23:02:59.721Z,2.08
2022-08-03T23:05:04.271Z,1.40
2022-08-03T23:07:09.320Z,1.50
2022-08-03T23:09:11.920Z,1.95
2022-08-03T23:11:14.883Z,1.27
2022-08-03T23:13:17.106Z,1.67
2022-08-03T23:15:18.810Z,1.27
2022-08-03T23:17:22.399Z,1.80
2022-08-03T23:19:26.213Z,2.13
2022-08-03T23:21:53.173Z,2.67
2022-08-03T23:23:50.256Z,1.20
2022-08-03T23:25:51.734Z,1.65
2022-08-03T23:28:05.118Z,1.67
2022-08-03T23:30:08.096Z,1.65
2022-08-03T23:32:10.038Z,1.55
2022-08-03T23:34:31.652Z,1.50
2022-08-03T23:36:33.123Z,2.00
2022-08-03T23:38:36.182Z,1.77
2022-08-03T23:40:38.017Z,1.70
2022-08-03T23:42:40.941Z,2.05
2022-08-03T23:44:47.070Z,1.88
2022-08-03T23:46:50.818Z,1.73
2022-08-03T23:49:00.061Z,2.75
2022-08-03T23:51:19.082Z,1.10
2022-08-03T23:53:27.386Z,1.83
2022-08-03T23:55:43.415Z,1.83
2022-08-03T23:57:58.312Z,1.63
